createdAt,value
2023-03-20T00:01:50.844Z,6.86
2023-03-20T00:05:53.813Z,6.83
2023-03-20T00:09:57.837Z,6.77
2023-03-20T00:14:04.195Z,6.73
2023-03-20T00:18:15.528Z,6.71
2023-03-20T00:22:18.456Z,6.68
2023-03-20T00:26:34.742Z,6.65
2023-03-20T00:30:39.039Z,6.61
2023-03-20T00:34:42.828Z,6.57
2023-03-20T00:38:45.855Z,6.53
2023-03-20T00:42:52.587Z,6.49
2023-03-20T00:46:59.192Z,6.41
2023-03-20T00:51:03.535Z,6.34
2023-03-20T00:55:08.710Z,6.30
2023-03-20T00:59:19.161Z,6.29
2023-03-20T01:03:27.149Z,6.28
2023-03-20T01:07:30.286Z,6.28
2023-03-20T01:11:33.716Z,6.26
2023-03-20T01:15:37.452Z,6.22
2023-03-20T01:19:42.647Z,6.21
2023-03-20T01:23:45.613Z,6.21
2023-03-20T01:27:52.037Z,6.15
2023-03-20T01:31:55.839Z,6.11
2023-03-20T01:36:03.356Z,6.09
2023-03-20T01:40:18.927Z,6.07
2023-03-20T01:44:23.937Z,6.04
2023-03-20T01:48:57.056Z,6.00
2023-03-20T01:53:08.697Z,5.95
2023-03-20T01:57:19.536Z,5.87
2023-03-20T02:01:25.447Z,5.83
2023-03-20T02:05:28.767Z,5.79
2023-03-20T02:09:33.275Z,5.76
2023-03-20T02:13:37.954Z,5.69
2023-03-20T02:17:42.707Z,5.64
2023-03-20T02:22:20.809Z,5.57
2023-03-20T02:26:39.305Z,5.52
2023-03-20T02:30:59.559Z,5.51
2023-03-20T02:35:38.080Z,5.48
2023-03-20T02:39:59.077Z,5.43
2023-03-20T02:44:09.885Z,5.42
2023-03-20T02:48:18.596Z,5.36
2023-03-20T02:52:27.154Z,5.31
2023-03-20T02:56:36.908Z,5.27
2023-03-20T03:00:47.485Z,5.17
2023-03-20T03:04:54.912Z,5.12
2023-03-20T03:09:05.017Z,5.10
2023-03-20T03:13:15.363Z,5.11
2023-03-20T03:17:20.974Z,5.12
2023-03-20T03:21:25.331Z,5.12
2023-03-20T03:25:31.430Z,5.05
2023-03-20T03:29:39.567Z,4.93
2023-03-20T03:33:46.183Z,4.79
2023-03-20T03:37:59.328Z,4.76
2023-03-20T03:42:08.182Z,4.73
2023-03-20T03:46:19.032Z,4.73
2023-03-20T03:50:29.200Z,4.77
2023-03-20T03:54:40.504Z,4.82
2023-03-20T03:59:12.249Z,4.84
2023-03-20T04:03:18.238Z,4.75
2023-03-20T04:07:21.838Z,4.73
2023-03-20T04:11:28.509Z,4.78
2023-03-20T04:15:31.677Z,4.81
2023-03-20T04:19:36.197Z,4.83
2023-03-20T04:23:39.331Z,4.87
2023-03-20T04:27:42.917Z,4.90
2023-03-20T04:31:53.810Z,4.93
2023-03-20T04:36:13.525Z,4.96
2023-03-20T04:40:16.806Z,4.97
2023-03-20T04:44:20.552Z,4.97
2023-03-20T04:48:24.626Z,5.00
2023-03-20T04:52:29.164Z,5.01
2023-03-20T04:56:32.201Z,5.00
2023-03-20T05:00:48.113Z,5.02
2023-03-20T05:04:51.059Z,5.02
2023-03-20T05:08:55.744Z,4.96
2023-03-20T05:12:59.030Z,4.87
2023-03-20T05:17:12.238Z,4.84
2023-03-20T05:21:37.959Z,4.83
2023-03-20T05:25:53.772Z,4.80
2023-03-20T05:30:32.191Z,4.72
2023-03-20T05:34:41.148Z,4.73
2023-03-20T05:38:58.081Z,4.77
2023-03-20T05:43:29.256Z,4.78
2023-03-20T05:47:59.834Z,4.82
2023-03-20T05:52:02.730Z,4.86
2023-03-20T05:56:16.537Z,4.95
2023-03-20T06:00:29.281Z,5.04
2023-03-20T06:04:55.185Z,5.15
2023-03-20T06:09:07.314Z,5.27
2023-03-20T06:13:10.915Z,5.36
2023-03-20T06:17:16.605Z,5.43
2023-03-20T06:21:24.721Z,5.52
2023-03-20T06:25:29.626Z,5.60
2023-03-20T06:29:32.808Z,5.69
2023-03-20T06:33:49.076Z,5.78
2023-03-20T06:37:52.224Z,5.90
2023-03-20T06:41:59.588Z,6.03
2023-03-20T06:46:02.628Z,6.15
2023-03-20T06:50:11.616Z,6.26
2023-03-20T06:54:14.596Z,6.39
2023-03-20T06:58:18.740Z,6.56
2023-03-20T07:02:25.928Z,6.76
2023-03-20T07:06:30.347Z,7.00
2023-03-20T07:10:33.308Z,7.24
2023-03-20T07:14:36.420Z,7.42
2023-03-20T07:18:43.340Z,7.63
2023-03-20T07:22:49.667Z,7.86
2023-03-20T07:27:00.016Z,8.09
2023-03-20T07:31:03.134Z,8.30
2023-03-20T07:35:09.344Z,8.55
2023-03-20T07:39:15.129Z,8.85
2023-03-20T07:43:23.798Z,9.05
2023-03-20T07:47:49.922Z,9.22
2023-03-20T07:51:54.536Z,9.37
2023-03-20T07:56:00.170Z,9.59
2023-03-20T08:00:04.376Z,9.83
2023-03-20T08:04:14.586Z,10.08
2023-03-20T08:08:17.843Z,10.38
2023-03-20T08:12:22.632Z,10.56
2023-03-20T08:16:26.024Z,10.61
2023-03-20T08:20:29.148Z,10.70
2023-03-20T08:24:32.260Z,10.82
2023-03-20T08:28:46.963Z,10.92
2023-03-20T08:32:51.436Z,11.09
2023-03-20T08:36:54.677Z,11.20
2023-03-20T08:40:58.310Z,11.33
2023-03-20T08:45:02.710Z,11.47
2023-03-20T08:49:05.594Z,11.54
2023-03-20T08:53:08.491Z,11.70
2023-03-20T08:57:12.017Z,11.87
2023-03-20T09:01:16.474Z,12.04
2023-03-20T09:05:19.537Z,12.10
2023-03-20T09:09:29.224Z,12.11
2023-03-20T09:13:32.394Z,12.16
2023-03-20T09:17:36.895Z,12.21
2023-03-20T09:21:40.033Z,12.35
2023-03-20T09:25:43.088Z,12.46
2023-03-20T09:29:45.991Z,12.58
2023-03-20T09:33:50.422Z,12.74
2023-03-20T09:37:54.278Z,12.70
2023-03-20T09:42:01.727Z,12.71
2023-03-20T09:46:21.360Z,12.83
2023-03-20T09:50:33.037Z,13.01
2023-03-20T09:54:53.145Z,13.13
2023-03-20T09:58:58.597Z,13.18
2023-03-20T10:03:04.499Z,13.27
2023-03-20T10:07:13.970Z,13.35
2023-03-20T10:11:33.526Z,13.44
2023-03-20T10:15:47.521Z,13.56
2023-03-20T10:19:53.560Z,13.65
2023-03-20T10:24:04.443Z,13.75
2023-03-20T10:28:13.949Z,13.80
2023-03-20T10:32:26.243Z,13.92
2023-03-20T10:36:48.052Z,14.04
2023-03-20T10:40:52.975Z,14.19
2023-03-20T10:44:59.775Z,14.34
2023-03-20T10:49:30.981Z,14.47
2023-03-20T10:53:38.502Z,14.47
2023-03-20T10:57:48.955Z,14.54
2023-03-20T11:01:51.868Z,14.63
2023-03-20T11:06:09.234Z,14.76
2023-03-20T11:10:17.020Z,14.87
2023-03-20T11:14:24.326Z,15.03
2023-03-20T11:18:27.809Z,15.10
2023-03-20T11:22:31.286Z,15.08
2023-03-20T11:26:38.586Z,15.15
2023-03-20T11:31:01.363Z,15.17
2023-03-20T11:35:20.528Z,15.30
2023-03-20T11:39:26.862Z,15.57
2023-03-20T11:43:29.951Z,15.80
2023-03-20T11:47:36.683Z,15.96
2023-03-20T11:51:40.844Z,16.13
2023-03-20T11:55:47.229Z,16.16
2023-03-20T11:59:50.180Z,16.08
2023-03-20T12:04:03.586Z,16.12
2023-03-20T12:08:14.946Z,16.21
2023-03-20T12:12:32.510Z,16.36
2023-03-20T12:16:38.183Z,16.46
2023-03-20T12:20:47.752Z,16.60
2023-03-20T12:24:59.782Z,16.59
2023-03-20T12:29:09.093Z,16.62
2023-03-20T12:33:19.661Z,16.76
2023-03-20T12:37:24.365Z,16.80
2023-03-20T12:41:31.510Z,16.96
2023-03-20T12:45:39.975Z,17.10
2023-03-20T12:49:52.605Z,17.12
2023-03-20T12:54:06.505Z,16.94
2023-03-20T12:58:22.731Z,16.86
2023-03-20T13:02:35.023Z,16.75
2023-03-20T13:06:51.756Z,16.57
2023-03-20T13:11:04.045Z,16.40
2023-03-20T13:15:21.682Z,16.30
2023-03-20T13:19:35.214Z,16.31
2023-03-20T13:23:45.500Z,16.32
2023-03-20T13:27:55.641Z,16.27
2023-03-20T13:32:09.146Z,16.24
2023-03-20T13:36:22.115Z,16.24
2023-03-20T13:40:27.738Z,16.19
2023-03-20T13:44:33.565Z,16.12
2023-03-20T13:48:39.118Z,16.11
2023-03-20T13:52:50.012Z,16.09
2023-03-20T13:56:58.700Z,16.09
2023-03-20T14:01:09.178Z,16.12
2023-03-20T14:05:15.466Z,16.13
2023-03-20T14:09:33.599Z,16.12
2023-03-20T14:13:37.084Z,16.10
2023-03-20T14:17:45.533Z,16.08
2023-03-20T14:21:50.097Z,15.98
2023-03-20T14:25:56.457Z,15.90
2023-03-20T14:30:39.412Z,15.91
2023-03-20T14:34:48.602Z,15.91
2023-03-20T14:39:03.819Z,15.90
2023-03-20T14:43:15.714Z,15.90
2023-03-20T14:47:27.222Z,15.88
2023-03-20T14:51:42.708Z,15.82
2023-03-20T14:55:52.502Z,15.72
2023-03-20T14:59:56.243Z,15.72
2023-03-20T15:04:03.632Z,15.68
2023-03-20T15:08:11.253Z,15.63
2023-03-20T15:12:18.217Z,15.64
2023-03-20T15:16:28.542Z,15.62
2023-03-20T15:20:31.920Z,15.59
2023-03-20T15:24:36.386Z,15.58
2023-03-20T15:28:39.976Z,15.53
2023-03-20T15:32:44.064Z,15.48
2023-03-20T15:36:47.137Z,15.40
2023-03-20T15:40:52.086Z,15.30
2023-03-20T15:44:56.973Z,15.25
2023-03-20T15:49:00.399Z,15.20
2023-03-20T15:53:04.511Z,15.18
2023-03-20T15:57:10.630Z,15.14
2023-03-20T16:01:19.266Z,15.08
2023-03-20T16:05:26.608Z,15.01
2023-03-20T16:09:30.140Z,14.92
2023-03-20T16:13:39.034Z,14.88
2023-03-20T16:17:42.363Z,14.86
2023-03-20T16:21:51.812Z,14.76
2023-03-20T16:25:58.711Z,14.69
2023-03-20T16:30:07.797Z,14.57
2023-03-20T16:34:19.646Z,14.51
2023-03-20T16:38:26.114Z,14.47
2023-03-20T16:42:30.950Z,14.38
2023-03-20T16:46:35.483Z,14.32
2023-03-20T16:50:40.305Z,14.24
2023-03-20T16:54:45.919Z,14.18
2023-03-20T16:58:49.349Z,14.09
2023-03-20T17:03:01.267Z,14.03
2023-03-20T17:07:09.383Z,13.93
2023-03-20T17:11:15.640Z,13.88
2023-03-20T17:15:21.145Z,13.85
2023-03-20T17:19:25.998Z,13.81
2023-03-20T17:23:28.985Z,13.69
2023-03-20T17:27:33.331Z,13.65
2023-03-20T17:31:36.343Z,13.61
2023-03-20T17:35:40.949Z,13.54
2023-03-20T17:39:43.996Z,13.48
2023-03-20T17:43:47.569Z,13.45
2023-03-20T17:47:51.698Z,13.41
2023-03-20T17:51:56.543Z,13.36
2023-03-20T17:55:59.780Z,13.29
2023-03-20T18:00:05.823Z,13.29
2023-03-20T18:04:09.066Z,13.26
2023-03-20T18:08:16.794Z,13.23
2023-03-20T18:12:21.129Z,13.18
2023-03-20T18:16:26.844Z,13.14
2023-03-20T18:20:32.085Z,13.07
2023-03-20T18:24:36.587Z,13.02
2023-03-20T18:28:39.711Z,13.01
2023-03-20T18:32:42.756Z,12.97
2023-03-20T18:36:46.748Z,12.93
2023-03-20T18:40:51.136Z,12.90
2023-03-20T18:44:54.439Z,12.84
2023-03-20T18:48:58.034Z,12.79
2023-03-20T18:53:01.174Z,12.79
2023-03-20T18:57:05.834Z,12.83
2023-03-20T19:01:11.342Z,12.84
2023-03-20T19:05:14.439Z,12.85
2023-03-20T19:09:18.432Z,12.86
2023-03-20T19:13:24.769Z,12.84
2023-03-20T19:17:27.937Z,12.80
2023-03-20T19:21:32.228Z,12.76
2023-03-20T19:25:36.747Z,12.72
2023-03-20T19:29:41.068Z,12.72
2023-03-20T19:33:44.507Z,12.65
2023-03-20T19:37:47.800Z,12.59
2023-03-20T19:41:51.807Z,12.55
2023-03-20T19:45:58.568Z,12.54
2023-03-20T19:50:01.855Z,12.49
2023-03-20T19:54:05.108Z,12.45
2023-03-20T19:58:08.856Z,12.39
2023-03-20T20:02:13.449Z,12.36
2023-03-20T20:06:16.824Z,12.32
2023-03-20T20:10:21.084Z,12.30
2023-03-20T20:14:24.209Z,12.24
2023-03-20T20:18:30.408Z,12.20
2023-03-20T20:22:33.946Z,12.19
2023-03-20T20:26:41.229Z,12.19
2023-03-20T20:30:54.603Z,12.16
2023-03-20T20:39:21.977Z,12.08
2023-03-20T20:43:56.703Z,12.06
2023-03-20T20:47:48.908Z,12.01
2023-03-20T20:51:53.201Z,11.94
2023-03-20T20:55:56.229Z,11.89
2023-03-20T21:00:00.325Z,11.86
2023-03-20T21:04:03.417Z,11.84
2023-03-20T21:08:07.999Z,11.80
2023-03-20T21:12:22.854Z,11.74
2023-03-20T21:16:33.628Z,11.68
2023-03-20T21:20:36.613Z,11.64
2023-03-20T21:24:41.255Z,11.63
2023-03-20T21:28:44.191Z,11.54
2023-03-20T21:32:47.337Z,11.50
2023-03-20T21:36:51.359Z,11.45
2023-03-20T21:40:55.935Z,11.41
2023-03-20T21:45:56.132Z,11.42
2023-03-20T21:58:51.125Z,11.33
2023-03-20T22:02:34.762Z,11.28
2023-03-20T22:11:47.566Z,11.31
2023-03-20T22:33:55.676Z,11.18
2023-03-20T22:38:21.806Z,11.14
2023-03-20T22:42:30.665Z,11.11
2023-03-20T22:46:36.367Z,11.11
2023-03-20T22:50:36.268Z,11.06
2023-03-20T22:54:39.368Z,10.99
2023-03-20T22:58:42.274Z,10.94
2023-03-20T23:02:45.460Z,10.89
2023-03-20T23:06:49.978Z,10.85
2023-03-20T23:10:53.321Z,10.82
2023-03-20T23:14:56.374Z,10.76
2023-03-20T23:18:59.352Z,10.70
2023-03-20T23:23:03.674Z,10.68
2023-03-20T23:27:06.585Z,10.66
2023-03-20T23:31:12.279Z,10.67
2023-03-20T23:35:15.415Z,10.66
2023-03-20T23:39:19.856Z,10.62
2023-03-20T23:43:22.759Z,10.60
2023-03-20T23:47:29.877Z,10.57
2023-03-20T23:51:35.595Z,10.56
2023-03-20T23:55:40.303Z,10.60
2023-03-20T23:59:43.950Z,10.57
